Time;durP1;ratioP1;P1;durP2;ratioP2;P2;SDS_P1;SDS_P2;PMS_P1;PMS_P2;Temp;Humidity;BMP_temperature;BMP_pressure;BME280_temperature;BME280_humidity;BME280_pressure;Samples;Min_cycle;Max_cycle;Signal;HPM_P1;HPM_P2
2021/03/18 00:00:14;;;;;;;20.00;12.77;;;;;;;;;;1036168;28;20056;-44
2021/03/18 00:00:49;;;;;;;17.73;12.73;;;;;;;;;;1033769;28;20014;-44
2021/03/18 00:01:20;;;;;;;19.33;12.85;;;;;;;;;;1034347;28;20030;-43
2021/03/18 00:01:50;;;;;;;18.00;12.83;;;;;;;;;;1035119;28;20025;-43
2021/03/18 00:02:20;;;;;;;20.67;12.57;;;;;;;;;;1035040;28;20014;-45
2021/03/18 00:02:50;;;;;;;18.17;13.67;;;;;;;;;;1033932;28;20025;-44
2021/03/18 00:03:22;;;;;;;21.00;13.30;;;;;;;;;;1034128;28;20100;-44
2021/03/18 00:03:52;;;;;;;23.23;14.10;;;;;;;;;;1035465;28;20080;-43
2021/03/18 00:04:23;;;;;;;15.87;12.80;;;;;;;;;;1035452;28;20112;-44
2021/03/18 00:04:53;;;;;;;22.77;13.97;;;;;;;;;;1033321;28;20018;-44
2021/03/18 00:05:23;;;;;;;18.23;12.53;;;;;;;;;;1033538;28;20109;-44
2021/03/18 00:05:54;;;;;;;19.10;13.07;;;;;;;;;;1035067;28;20022;-44
2021/03/18 00:06:24;;;;;;;17.90;13.13;;;;;;;;;;1034971;28;20093;-45
2021/03/18 00:06:54;;;;;;;22.00;13.40;;;;;;;;;;1032723;28;20049;-44
2021/03/18 00:07:25;;;;;;;18.23;13.00;;;;;;;;;;1035278;28;20414;-45
2021/03/18 00:07:55;;;;;;;18.70;13.23;;;;;;;;;;1033765;28;20464;-46
2021/03/18 00:08:25;;;;;;;21.77;14.77;;;;;;;;;;1033171;28;20017;-44
2021/03/18 00:08:55;;;;;;;19.40;13.80;;;;;;;;;;1034629;28;20025;-43
2021/03/18 00:09:26;;;;;;;20.73;12.60;;;;;;;;;;1034994;28;20017;-44
2021/03/18 00:09:56;;;;;;;19.47;13.47;;;;;;;;;;1034253;28;20141;-43
2021/03/18 00:10:26;;;;;;;17.00;13.13;;;;;;;;;;1033776;28;20093;-43
2021/03/18 00:10:57;;;;;;;18.67;13.50;;;;;;;;;;1034810;28;20033;-43
2021/03/18 00:11:27;;;;;;;15.93;12.67;;;;;;;;;;1035113;28;20014;-45
2021/03/18 00:11:57;;;;;;;18.97;13.50;;;;;;;;;;1034207;28;20064;-43
2021/03/18 00:12:28;;;;;;;15.90;12.47;;;;;;;;;;1033857;28;20018;-44
2021/03/18 00:12:58;;;;;;;21.23;13.67;;;;;;;;;;1034222;28;20126;-45
2021/03/18 00:13:28;;;;;;;18.57;12.83;;;;;;;;;;1034421;28;20010;-44
2021/03/18 00:13:59;;;;;;;21.67;14.20;;;;;;;;;;1033962;28;20022;-43
2021/03/18 00:14:29;;;;;;;20.47;15.63;;;;;;;;;;1033320;28;20006;-45
2021/03/18 00:15:02;;;;;;;21.97;15.00;;;;;;;;;;1034488;28;20045;-45
2021/03/18 00:15:32;;;;;;;17.60;13.48;;;;;;;;;;1034926;28;20010;-47
2021/03/18 00:16:03;;;;;;;21.17;13.13;;;;;;;;;;1034595;28;20022;-45
2021/03/18 00:16:33;;;;;;;20.67;13.67;;;;;;;;;;1033362;28;20537;-44
2021/03/18 00:17:03;;;;;;;20.47;13.43;;;;;;;;;;1033537;28;20671;-45
2021/03/18 00:17:34;;;;;;;22.37;14.07;;;;;;;;;;1029487;28;20043;-44
2021/03/18 00:18:05;;;;;;;18.10;13.43;;;;;;;;;;1029281;28;20384;-44
2021/03/18 00:18:39;;;;;;;21.70;13.60;;;;;;;;;;1030493;28;20022;-45
2021/03/18 00:19:09;;;;;;;18.52;13.45;;;;;;;;;;1031272;28;20007;-44
2021/03/18 00:19:39;;;;;;;15.43;12.53;;;;;;;;;;1034030;28;20467;-46
2021/03/18 00:20:10;;;;;;;19.27;13.43;;;;;;;;;;1033619;28;19999;-43
2021/03/18 00:20:40;;;;;;;17.23;12.90;;;;;;;;;;1034143;28;20021;-44
2021/03/18 00:21:11;;;;;;;18.87;13.17;;;;;;;;;;1035200;28;20002;-45
2021/03/18 00:21:41;;;;;;;17.97;13.40;;;;;;;;;;1034435;28;20371;-43
2021/03/18 00:22:11;;;;;;;16.50;13.30;;;;;;;;;;1033203;28;20050;-44
2021/03/18 00:22:42;;;;;;;19.87;13.40;;;;;;;;;;1033692;28;20069;-44
2021/03/18 00:23:12;;;;;;;19.70;12.83;;;;;;;;;;1034739;28;20009;-44
2021/03/18 00:23:42;;;;;;;18.97;13.00;;;;;;;;;;1034222;28;20017;-43
2021/03/18 00:24:13;;;;;;;19.03;14.10;;;;;;;;;;1033348;28;20102;-46
2021/03/18 00:24:43;;;;;;;18.45;13.30;;;;;;;;;;1033456;28;20010;-43
2021/03/18 00:25:14;;;;;;;25.63;13.80;;;;;;;;;;1033384;28;20026;-48
2021/03/18 00:25:45;;;;;;;18.83;12.98;;;;;;;;;;1033576;28;20015;-44
2021/03/18 00:26:16;;;;;;;16.37;12.40;;;;;;;;;;1034950;28;20029;-44
2021/03/18 00:26:47;;;;;;;19.58;13.88;;;;;;;;;;1035044;28;20018;-44
2021/03/18 00:27:17;;;;;;;21.37;13.93;;;;;;;;;;1034262;28;20023;-44
2021/03/18 00:27:47;;;;;;;18.63;13.07;;;;;;;;;;1033635;28;20093;-46
2021/03/18 00:28:18;;;;;;;20.17;13.73;;;;;;;;;;1034458;28;20076;-45
2021/03/18 00:28:48;;;;;;;23.87;14.40;;;;;;;;;;1034927;28;20096;-45
2021/03/18 00:29:18;;;;;;;20.33;14.13;;;;;;;;;;1034381;28;20019;-44
2021/03/18 00:29:49;;;;;;;20.27;14.40;;;;;;;;;;1033751;28;20022;-44
2021/03/18 00:30:19;;;;;;;19.67;13.67;;;;;;;;;;1034294;28;20026;-45
2021/03/18 00:30:50;;;;;;;20.13;13.83;;;;;;;;;;1034992;28;20010;-44
2021/03/18 00:31:21;;;;;;;26.20;13.97;;;;;;;;;;1034699;28;20030;-45
2021/03/18 00:31:51;;;;;;;17.17;13.53;;;;;;;;;;1033567;28;20456;-45
2021/03/18 00:32:21;;;;;;;19.73;13.60;;;;;;;;;;1033573;28;20013;-44
2021/03/18 00:32:52;;;;;;;21.10;13.73;;;;;;;;;;1034622;28;20009;-44
2021/03/18 00:33:22;;;;;;;18.77;13.80;;;;;;;;;;1032065;28;20049;-44
2021/03/18 00:33:52;;;;;;;20.13;14.23;;;;;;;;;;1031649;28;20097;-44
2021/03/18 00:34:22;;;;;;;16.10;12.77;;;;;;;;;;1036094;28;20041;-46
2021/03/18 00:34:53;;;;;;;17.53;13.57;;;;;;;;;;1032266;28;20440;-44
2021/03/18 00:35:23;;;;;;;20.23;14.37;;;;;;;;;;1030341;28;20026;-44
2021/03/18 00:35:53;;;;;;;23.03;14.97;;;;;;;;;;1033391;28;20018;-44
2021/03/18 00:36:24;;;;;;;16.93;13.30;;;;;;;;;;1033541;28;20022;-45
2021/03/18 00:36:54;;;;;;;20.23;13.33;;;;;;;;;;1036029;28;20017;-45
2021/03/18 00:37:24;;;;;;;19.37;14.13;;;;;;;;;;1031970;28;20038;-43
2021/03/18 00:37:55;;;;;;;22.00;14.13;;;;;;;;;;1034550;28;20534;-44
2021/03/18 00:38:25;;;;;;;22.83;14.00;;;;;;;;;;1034684;28;20022;-42
2021/03/18 00:38:56;;;;;;;20.90;14.53;;;;;;;;;;1033828;28;20468;-44
2021/03/18 00:39:26;;;;;;;20.10;14.57;;;;;;;;;;1033310;28;20375;-44
2021/03/18 00:39:56;;;;;;;21.03;14.23;;;;;;;;;;1034557;28;20506;-43
2021/03/18 00:40:30;;;;;;;21.50;14.30;;;;;;;;;;1034940;28;20094;-44
2021/03/18 00:41:03;;;;;;;17.50;13.27;;;;;;;;;;1034223;28;20388;-45
2021/03/18 00:41:33;;;;;;;22.98;14.30;;;;;;;;;;1035456;28;20018;-44
2021/03/18 00:42:03;;;;;;;19.77;14.00;;;;;;;;;;1035075;28;20033;-45
2021/03/18 00:42:34;;;;;;;18.30;13.43;;;;;;;;;;1033687;28;20368;-44
2021/03/18 00:43:05;;;;;;;20.50;13.40;;;;;;;;;;1034097;28;20010;-43
2021/03/18 00:43:36;;;;;;;19.38;13.73;;;;;;;;;;1033836;28;20379;-45
2021/03/18 00:44:06;;;;;;;16.50;13.50;;;;;;;;;;1035921;28;20053;-45
2021/03/18 00:44:36;;;;;;;20.23;14.10;;;;;;;;;;1033727;28;20017;-45
2021/03/18 00:45:07;;;;;;;22.50;14.30;;;;;;;;;;1033268;28;20010;-44
2021/03/18 00:45:38;;;;;;;18.93;13.80;;;;;;;;;;1034388;28;20449;-44
2021/03/18 00:46:08;;;;;;;19.67;13.37;;;;;;;;;;1033018;28;20010;-44
2021/03/18 00:46:38;;;;;;;21.60;13.83;;;;;;;;;;1034610;28;20454;-44
2021/03/18 00:47:09;;;;;;;18.27;13.80;;;;;;;;;;1035027;28;20022;-44
2021/03/18 00:47:39;;;;;;;22.10;14.37;;;;;;;;;;1034480;28;20514;-44
2021/03/18 00:48:09;;;;;;;20.73;14.43;;;;;;;;;;1033699;28;20064;-43
2021/03/18 00:48:40;;;;;;;20.33;13.20;;;;;;;;;;1034284;28;20009;-44
2021/03/18 00:49:10;;;;;;;21.20;14.53;;;;;;;;;;1034863;28;20060;-44
2021/03/18 00:49:40;;;;;;;23.47;15.17;;;;;;;;;;1034551;28;20375;-44
2021/03/18 00:50:11;;;;;;;23.17;13.73;;;;;;;;;;1033712;28;20014;-44
2021/03/18 00:50:52;;;;;;;19.48;14.20;;;;;;;;;;1034138;28;20018;-44
2021/03/18 00:51:24;;;;;;;19.33;13.35;;;;;;;;;;1034731;28;20010;-44
2021/03/18 00:51:54;;;;;;;19.15;13.70;;;;;;;;;;1035075;28;20120;-45
2021/03/18 00:52:24;;;;;;;21.03;14.10;;;;;;;;;;1034656;28;20459;-44
2021/03/18 00:52:55;;;;;;;17.20;12.97;;;;;;;;;;1029331;28;20439;-44
2021/03/18 00:53:33;;;;;;;20.03;12.77;;;;;;;;;;1029320;28;20033;-44
2021/03/18 00:54:04;;;;;;;19.08;13.38;;;;;;;;;;1030506;28;20026;-43
2021/03/18 00:54:34;;;;;;;17.87;13.20;;;;;;;;;;1035004;28;20120;-43
2021/03/18 00:55:05;;;;;;;28.60;13.97;;;;;;;;;;1035034;28;20022;-44
2021/03/18 00:55:35;;;;;;;22.67;13.90;;;;;;;;;;1033545;28;20383;-43
2021/03/18 00:56:08;;;;;;;18.97;13.50;;;;;;;;;;1032972;28;20010;-43
2021/03/18 00:56:38;;;;;;;17.70;12.73;;;;;;;;;;1034388;28;20042;-43
2021/03/18 00:57:08;;;;;;;20.60;14.63;;;;;;;;;;1035135;28;20120;-45
2021/03/18 00:57:38;;;;;;;16.07;12.00;;;;;;;;;;1034103;28;20510;-44
2021/03/18 00:58:09;;;;;;;20.37;13.47;;;;;;;;;;1034923;28;20017;-45
2021/03/18 00:58:40;;;;;;;19.20;12.70;;;;;;;;;;1031917;28;20010;-44
2021/03/18 00:59:10;;;;;;;18.33;12.80;;;;;;;;;;1034701;28;20096;-45
2021/03/18 00:59:40;;;;;;;16.90;12.57;;;;;;;;;;1034190;28;20010;-43
2021/03/18 01:00:14;;;;;;;19.57;12.80;;;;;;;;;;1033160;28;20156;-44
2021/03/18 01:00:45;;;;;;;21.92;12.32;;;;;;;;;;1033712;28;20033;-44
2021/03/18 01:01:18;;;;;;;18.17;12.73;;;;;;;;;;1033763;28;20482;-43
2021/03/18 01:01:48;;;;;;;20.02;11.95;;;;;;;;;;1033146;28;20002;-43
2021/03/18 01:02:19;;;;;;;18.20;13.60;;;;;;;;;;1034112;28;20375;-43
2021/03/18 01:02:49;;;;;;;18.40;13.17;;;;;;;;;;1034763;28;20514;-43
2021/03/18 01:03:20;;;;;;;17.40;12.73;;;;;;;;;;1034088;28;20018;-43
2021/03/18 01:03:50;;;;;;;17.37;12.83;;;;;;;;;;1033613;28;20499;-43
2021/03/18 01:04:21;;;;;;;18.77;12.20;;;;;;;;;;1034231;28;20455;-43
2021/03/18 01:04:51;;;;;;;19.70;12.03;;;;;;;;;;1035107;28;20109;-44
2021/03/18 01:05:27;;;;;;;19.60;12.13;;;;;;;;;;1034601;28;20097;-43
2021/03/18 01:06:01;;;;;;;23.10;11.85;;;;;;;;;;1034110;28;20165;-44
2021/03/18 01:06:31;;;;;;;19.38;12.13;;;;;;;;;;1033537;28;20006;-44
2021/03/18 01:07:01;;;;;;;18.83;12.00;;;;;;;;;;1034081;28;20109;-44
2021/03/18 01:07:32;;;;;;;17.37;11.93;;;;;;;;;;1034917;28;20525;-44
2021/03/18 01:08:03;;;;;;;19.20;11.70;;;;;;;;;;1034426;28;20475;-44
2021/03/18 01:08:34;;;;;;;18.10;11.35;;;;;;;;;;1033567;28;20101;-44
2021/03/18 01:09:05;;;;;;;13.97;11.50;;;;;;;;;;1033274;28;20022;-44
2021/03/18 01:09:35;;;;;;;18.70;12.17;;;;;;;;;;1034669;28;20072;-45
2021/03/18 01:10:06;;;;;;;22.90;12.47;;;;;;;;;;1034671;28;20049;-45
2021/03/18 01:10:38;;;;;;;16.85;11.57;;;;;;;;;;1033470;28;20014;-44
2021/03/18 01:11:12;;;;;;;18.75;11.73;;;;;;;;;;1032912;28;20014;-44
2021/03/18 01:11:42;;;;;;;16.60;11.98;;;;;;;;;;1034126;28;20057;-44
2021/03/18 01:12:13;;;;;;;16.33;10.87;;;;;;;;;;1033361;28;20089;-44
2021/03/18 01:12:43;;;;;;;16.20;11.33;;;;;;;;;;1033500;28;20433;-44
2021/03/18 01:13:19;;;;;;;18.73;11.83;;;;;;;;;;1034972;28;20117;-45
2021/03/18 01:13:51;;;;;;;17.15;11.90;;;;;;;;;;1034458;28;20006;-44
2021/03/18 01:14:21;;;;;;;20.85;12.77;;;;;;;;;;1029985;28;20101;-44
2021/03/18 01:14:51;;;;;;;15.97;11.33;;;;;;;;;;1031882;28;20010;-45
2021/03/18 01:15:23;;;;;;;16.43;10.93;;;;;;;;;;1032110;28;20086;-44
2021/03/18 01:15:54;;;;;;;19.75;12.50;;;;;;;;;;1034718;28;20069;-44
2021/03/18 01:16:26;;;;;;;17.80;11.02;;;;;;;;;;1034914;28;20032;-45
2021/03/18 01:16:56;;;;;;;16.23;11.10;;;;;;;;;;1033647;28;20105;-44
2021/03/18 01:17:26;;;;;;;18.53;11.90;;;;;;;;;;1033504;28;20391;-45
2021/03/18 01:17:57;;;;;;;15.93;10.53;;;;;;;;;;1034720;28;20049;-45
2021/03/18 01:18:29;;;;;;;15.80;10.67;;;;;;;;;;1034695;28;20034;-46
2021/03/18 01:19:00;;;;;;;15.90;11.05;;;;;;;;;;1034162;28;20022;-44
2021/03/18 01:19:31;;;;;;;21.25;11.10;;;;;;;;;;1031033;28;20125;-44
2021/03/18 01:20:01;;;;;;;15.40;11.40;;;;;;;;;;1029869;28;20486;-45
2021/03/18 01:20:31;;;;;;;16.70;10.83;;;;;;;;;;1028920;28;20015;-44
2021/03/18 01:21:02;;;;;;;20.70;11.40;;;;;;;;;;1029800;28;20105;-44
2021/03/18 01:21:34;;;;;;;17.10;11.47;;;;;;;;;;1034785;28;20017;-44
2021/03/18 01:22:05;;;;;;;19.80;11.82;;;;;;;;;;1034772;28;20254;-44
2021/03/18 01:22:35;;;;;;;18.37;11.37;;;;;;;;;;1033474;28;20046;-45
2021/03/18 01:23:05;;;;;;;16.87;11.10;;;;;;;;;;1033586;28;20022;-44
2021/03/18 01:23:36;;;;;;;18.43;11.10;;;;;;;;;;1033226;28;20050;-44
2021/03/18 01:24:06;;;;;;;18.50;11.70;;;;;;;;;;1033467;28;20034;-44
2021/03/18 01:24:36;;;;;;;17.50;11.20;;;;;;;;;;1033528;28;20040;-44
2021/03/18 01:25:07;;;;;;;17.00;11.07;;;;;;;;;;1034049;28;20007;-43
2021/03/18 01:25:37;;;;;;;16.70;10.93;;;;;;;;;;1036260;28;20021;-43
2021/03/18 01:26:08;;;;;;;15.80;11.10;;;;;;;;;;1033715;28;20007;-44
2021/03/18 01:26:41;;;;;;;15.53;10.23;;;;;;;;;;1034638;28;20018;-43
2021/03/18 01:27:12;;;;;;;16.20;10.60;;;;;;;;;;1034870;28;20071;-44
2021/03/18 01:27:42;;;;;;;17.07;11.07;;;;;;;;;;1034433;28;20529;-43
2021/03/18 01:28:12;;;;;;;15.90;10.63;;;;;;;;;;1033520;28;20431;-43
2021/03/18 01:28:43;;;;;;;17.63;11.83;;;;;;;;;;1033398;28;20020;-43
2021/03/18 01:29:13;;;;;;;15.50;10.70;;;;;;;;;;1032883;28;20407;-43
2021/03/18 01:29:43;;;;;;;20.67;10.83;;;;;;;;;;1033652;28;20025;-44
2021/03/18 01:30:15;;;;;;;14.43;10.33;;;;;;;;;;1034630;28;20025;-43
2021/03/18 01:30:45;;;;;;;16.48;11.30;;;;;;;;;;1034763;28;20360;-44
2021/03/18 01:31:15;;;;;;;15.50;10.73;;;;;;;;;;1033472;28;20026;-44
2021/03/18 01:31:46;;;;;;;18.33;10.97;;;;;;;;;;1033510;28;20022;-45
2021/03/18 01:32:16;;;;;;;15.20;10.73;;;;;;;;;;1033663;28;20023;-44
2021/03/18 01:32:46;;;;;;;17.87;11.30;;;;;;;;;;1033385;28;20010;-45
2021/03/18 01:33:17;;;;;;;18.13;11.30;;;;;;;;;;1034873;28;20010;-46
2021/03/18 01:33:47;;;;;;;16.97;11.10;;;;;;;;;;1034834;28;20104;-46
2021/03/18 01:34:17;;;;;;;18.80;11.50;;;;;;;;;;1033464;28;20109;-43
2021/03/18 01:34:48;;;;;;;15.63;11.07;;;;;;;;;;1033132;28;20427;-43
2021/03/18 01:35:19;;;;;;;14.80;10.57;;;;;;;;;;1034466;28;20018;-45
2021/03/18 01:36:00;;;;;;;16.00;10.57;;;;;;;;;;1030485;28;20022;-44
2021/03/18 01:36:31;;;;;;;15.63;10.50;;;;;;;;;;1032658;28;20034;-44
2021/03/18 01:37:01;;;;;;;17.90;11.27;;;;;;;;;;1033099;28;20018;-44
2021/03/18 01:37:31;;;;;;;16.33;10.90;;;;;;;;;;1034647;28;20026;-43
2021/03/18 01:38:02;;;;;;;18.40;11.33;;;;;;;;;;1034893;28;20010;-43
2021/03/18 01:38:32;;;;;;;17.47;11.07;;;;;;;;;;1033606;28;20150;-44
2021/03/18 01:39:04;;;;;;;15.10;10.50;;;;;;;;;;1033483;28;20010;-44
2021/03/18 01:39:34;;;;;;;15.60;10.93;;;;;;;;;;1034469;28;20083;-45
2021/03/18 01:40:05;;;;;;;15.13;10.87;;;;;;;;;;1034866;28;20600;-44
2021/03/18 01:40:35;;;;;;;18.52;11.07;;;;;;;;;;1033878;28;20026;-45
2021/03/18 01:41:06;;;;;;;16.67;10.53;;;;;;;;;;1033558;28;20075;-44
2021/03/18 01:41:36;;;;;;;17.87;11.30;;;;;;;;;;1034211;28;20013;-45
2021/03/18 01:42:06;;;;;;;15.37;10.97;;;;;;;;;;1034792;28;20022;-44
2021/03/18 01:42:37;;;;;;;19.60;11.30;;;;;;;;;;1034183;28;20514;-44
2021/03/18 01:43:07;;;;;;;22.03;11.90;;;;;;;;;;1033445;28;20460;-46
2021/03/18 01:43:37;;;;;;;16.87;10.77;;;;;;;;;;1033759;28;20020;-44
2021/03/18 01:44:08;;;;;;;17.97;11.30;;;;;;;;;;1034669;28;20006;-43
2021/03/18 01:44:38;;;;;;;21.33;11.40;;;;;;;;;;1034177;28;20018;-43
2021/03/18 01:45:09;;;;;;;16.40;11.53;;;;;;;;;;1033045;28;20002;-43
2021/03/18 01:45:39;;;;;;;18.57;10.63;;;;;;;;;;1033583;28;20015;-46
2021/03/18 01:46:09;;;;;;;19.17;11.43;;;;;;;;;;1034707;28;19998;-45
2021/03/18 01:46:40;;;;;;;18.40;11.80;;;;;;;;;;1034511;28;20017;-43
2021/03/18 01:47:10;;;;;;;17.90;11.03;;;;;;;;;;1033503;28;20002;-44
2021/03/18 01:47:41;;;;;;;20.40;10.80;;;;;;;;;;1033986;28;20014;-44
2021/03/18 01:48:12;;;;;;;21.40;11.88;;;;;;;;;;1033509;28;20040;-46
2021/03/18 01:48:42;;;;;;;15.97;10.87;;;;;;;;;;1033472;28;20027;-44
2021/03/18 01:49:12;;;;;;;17.27;11.07;;;;;;;;;;1034667;28;20486;-43
2021/03/18 01:49:43;;;;;;;17.10;11.23;;;;;;;;;;1034842;28;20017;-44
2021/03/18 01:50:13;;;;;;;20.37;12.30;;;;;;;;;;1033858;28;20090;-43
2021/03/18 01:50:44;;;;;;;14.13;10.63;;;;;;;;;;1033542;28;20463;-44
2021/03/18 01:51:14;;;;;;;22.40;12.10;;;;;;;;;;1034184;28;20028;-44
2021/03/18 01:51:45;;;;;;;17.83;12.13;;;;;;;;;;1035021;28;20121;-43
2021/03/18 01:52:15;;;;;;;19.90;11.77;;;;;;;;;;1034013;28;20028;-44
2021/03/18 01:52:45;;;;;;;19.13;12.47;;;;;;;;;;1034446;28;20026;-45
2021/03/18 01:53:16;;;;;;;16.37;11.07;;;;;;;;;;1034233;28;20029;-45
2021/03/18 01:53:47;;;;;;;16.63;11.15;;;;;;;;;;1032926;28;20010;-43
2021/03/18 01:54:18;;;;;;;20.88;12.13;;;;;;;;;;1034036;28;20022;-43
2021/03/18 01:54:48;;;;;;;20.47;11.73;;;;;;;;;;1034380;28;20434;-43
2021/03/18 01:55:22;;;;;;;18.80;12.60;;;;;;;;;;1034118;28;20456;-45
2021/03/18 01:55:53;;;;;;;18.83;12.73;;;;;;;;;;1033611;28;20011;-44
2021/03/18 01:56:23;;;;;;;17.60;11.87;;;;;;;;;;1033173;28;20027;-43
2021/03/18 01:56:53;;;;;;;19.50;12.77;;;;;;;;;;1034446;28;20021;-44
2021/03/18 01:57:24;;;;;;;18.37;12.47;;;;;;;;;;1030757;28;20101;-43
2021/03/18 01:57:54;;;;;;;20.13;13.10;;;;;;;;;;1027870;28;20026;-43
2021/03/18 01:58:25;;;;;;;21.97;12.37;;;;;;;;;;1026518;28;20019;-43
2021/03/18 01:58:55;;;;;;;19.50;12.50;;;;;;;;;;1025866;28;20823;-44
2021/03/18 01:59:25;;;;;;;17.83;12.47;;;;;;;;;;1027442;28;20465;-43
2021/03/18 01:59:55;;;;;;;20.27;11.90;;;;;;;;;;1030115;28;20062;-44
2021/03/18 02:00:26;;;;;;;18.63;11.57;;;;;;;;;;1035382;28;20014;-44
2021/03/18 02:00:57;;;;;;;18.87;11.80;;;;;;;;;;1033931;28;20034;-47
2021/03/18 02:01:27;;;;;;;16.95;12.07;;;;;;;;;;1033765;28;20011;-43
2021/03/18 02:01:57;;;;;;;20.27;12.87;;;;;;;;;;1034364;28;20105;-44
2021/03/18 02:02:27;;;;;;;19.50;12.60;;;;;;;;;;1034880;28;20018;-43
2021/03/18 02:02:58;;;;;;;22.17;12.73;;;;;;;;;;1034412;28;20472;-44
2021/03/18 02:03:28;;;;;;;20.97;11.63;;;;;;;;;;1033441;28;20019;-44
2021/03/18 02:03:59;;;;;;;17.77;12.33;;;;;;;;;;1036503;28;20423;-43
2021/03/18 02:04:29;;;;;;;20.20;13.53;;;;;;;;;;1033526;28;20022;-44
2021/03/18 02:04:59;;;;;;;23.47;13.17;;;;;;;;;;1034098;28;20019;-43
2021/03/18 02:05:30;;;;;;;19.90;12.60;;;;;;;;;;1034798;28;20025;-44
2021/03/18 02:06:00;;;;;;;19.77;13.50;;;;;;;;;;1034806;28;20015;-43
2021/03/18 02:06:30;;;;;;;19.13;13.60;;;;;;;;;;1033449;28;20468;-44
2021/03/18 02:07:01;;;;;;;20.17;12.90;;;;;;;;;;1029300;28;20105;-45
2021/03/18 02:07:31;;;;;;;21.20;13.93;;;;;;;;;;1030415;28;20498;-44
2021/03/18 02:08:01;;;;;;;22.90;12.50;;;;;;;;;;1026492;28;20122;-43
2021/03/18 02:08:32;;;;;;;23.27;14.00;;;;;;;;;;1026606;28;20067;-44
2021/03/18 02:09:02;;;;;;;18.70;13.33;;;;;;;;;;1034608;28;20561;-43
2021/03/18 02:09:33;;;;;;;22.83;13.63;;;;;;;;;;1033239;28;20116;-43
2021/03/18 02:10:04;;;;;;;19.63;13.00;;;;;;;;;;1033434;28;20049;-43
2021/03/18 02:10:35;;;;;;;19.77;12.60;;;;;;;;;;1034384;28;20018;-44
2021/03/18 02:11:06;;;;;;;22.77;12.97;;;;;;;;;;1030713;28;20031;-49
2021/03/18 02:11:36;;;;;;;23.02;13.85;;;;;;;;;;1029637;28;20823;-44
2021/03/18 02:12:06;;;;;;;24.17;13.23;;;;;;;;;;1029332;28;20030;-44
2021/03/18 02:12:37;;;;;;;23.10;14.07;;;;;;;;;;1034028;28;20486;-44
2021/03/18 02:13:08;;;;;;;24.43;13.70;;;;;;;;;;1032514;28;20535;-43
2021/03/18 02:13:38;;;;;;;20.50;12.20;;;;;;;;;;1033519;28;20018;-43
2021/03/18 02:14:08;;;;;;;18.07;13.13;;;;;;;;;;1031293;28;20022;-44
2021/03/18 02:14:39;;;;;;;22.37;13.73;;;;;;;;;;1031835;28;20014;-43
2021/03/18 02:15:09;;;;;;;21.03;13.17;;;;;;;;;;1033344;28;20472;-43
2021/03/18 02:15:41;;;;;;;22.87;14.40;;;;;;;;;;1033413;28;20061;-43
2021/03/18 02:16:12;;;;;;;19.85;13.43;;;;;;;;;;1034783;28;20447;-43
2021/03/18 02:16:42;;;;;;;24.27;14.17;;;;;;;;;;1034424;28;20014;-44
2021/03/18 02:17:15;;;;;;;20.93;13.37;;;;;;;;;;1033132;28;20006;-43
2021/03/18 02:17:49;;;;;;;22.27;13.88;;;;;;;;;;1035427;28;20005;-43
2021/03/18 02:18:39;;;;;;;22.00;13.98;;;;;;;;;;1034103;28;20042;-43
2021/03/18 02:19:09;;;;;;;;;;;;;;;;;;1035078;28;20026;-43
2021/03/18 02:19:49;;;;;;;22.63;13.83;;;;;;;;;;1034551;28;19988;-44
2021/03/18 02:20:38;;;;;;;23.50;12.88;;;;;;;;;;1034598;28;20106;-44
2021/03/18 02:21:09;;;;;;;19.33;13.18;;;;;;;;;;1034854;28;20053;-43
2021/03/18 02:21:57;;;;;;;26.40;14.20;;;;;;;;;;1033968;28;20050;-43
2021/03/18 02:22:27;;;;;;;19.05;12.73;;;;;;;;;;1035205;28;20097;-44
2021/03/18 02:23:16;;;;;;;23.73;14.23;;;;;;;;;;1034346;28;20020;-44
2021/03/18 02:24:02;;;;;;;22.48;13.73;;;;;;;;;;1034787;28;20085;-45
2021/03/18 02:24:35;;;;;;;23.08;14.23;;;;;;;;;;1034677;28;20371;-44
2021/03/18 02:25:16;;;;;;;24.80;14.20;;;;;;;;;;1034628;28;20010;-43
2021/03/18 02:25:48;;;;;;;26.85;15.25;;;;;;;;;;1034267;28;20391;-44
2021/03/18 02:26:33;;;;;;;22.05;14.25;;;;;;;;;;1029801;28;20050;-43
2021/03/18 02:27:15;;;;;;;20.65;14.35;;;;;;;;;;1030460;28;20482;-44
2021/03/18 02:28:04;;;;;;;25.63;13.93;;;;;;;;;;1032861;28;20021;-44
2021/03/18 02:28:43;;;;;;;24.35;14.88;;;;;;;;;;1033593;28;20022;-44
2021/03/18 02:29:28;;;;;;;21.75;14.02;;;;;;;;;;1033424;28;20069;-45
2021/03/18 02:30:18;;;;;;;21.70;14.00;;;;;;;;;;1034199;28;20026;-44
2021/03/18 02:30:55;;;;;;;21.13;13.82;;;;;;;;;;1032130;28;20022;-43
2021/03/18 02:31:46;;;;;;;25.83;14.10;;;;;;;;;;1032973;28;20042;-44
2021/03/18 02:32:16;;;;;;;;;;;;;;;;;;1029593;28;20015;-48
2021/03/18 02:32:58;;;;;;;21.77;14.17;;;;;;;;;;1035363;28;19905;-44
2021/03/18 02:33:47;;;;;;;21.30;14.45;;;;;;;;;;1035273;28;20013;-43
2021/03/18 02:34:26;;;;;;;23.52;15.20;;;;;;;;;;1034877;28;20374;-43
2021/03/18 02:35:15;;;;;;;27.50;15.63;;;;;;;;;;1034605;28;20018;-44
2021/03/18 02:35:46;;;;;;;28.23;15.27;;;;;;;;;;1035475;28;20346;-45
2021/03/18 02:36:20;;;;;;;25.45;14.52;;;;;;;;;;1033003;28;20028;-44
2021/03/18 02:36:53;;;;;;;22.15;14.30;;;;;;;;;;1035270;28;20025;-43
2021/03/18 02:37:25;;;;;;;22.13;14.38;;;;;;;;;;1031469;28;20530;-44
2021/03/18 02:38:00;;;;;;;26.13;15.30;;;;;;;;;;1032555;28;20018;-45
2021/03/18 02:38:40;;;;;;;26.15;15.43;;;;;;;;;;1033481;28;20034;-44
2021/03/18 02:39:15;;;;;;;22.95;14.30;;;;;;;;;;1031954;28;20015;-43
2021/03/18 02:39:47;;;;;;;24.38;13.80;;;;;;;;;;1032414;28;20011;-43
2021/03/18 02:40:18;;;;;;;25.60;14.63;;;;;;;;;;1026487;28;20056;-43
2021/03/18 02:40:53;;;;;;;23.57;14.63;;;;;;;;;;1026638;28;20423;-43
2021/03/18 02:41:25;;;;;;;21.63;13.95;;;;;;;;;;1033282;28;20027;-43
2021/03/18 02:41:56;;;;;;;25.33;15.02;;;;;;;;;;1026965;28;20035;-43
2021/03/18 02:42:26;;;;;;;23.25;14.50;;;;;;;;;;1031974;28;20713;-44
2021/03/18 02:42:57;;;;;;;23.80;14.63;;;;;;;;;;1030157;28;20018;-45
2021/03/18 02:43:27;;;;;;;21.40;14.10;;;;;;;;;;1025763;28;20011;-45
2021/03/18 02:44:02;;;;;;;20.43;14.47;;;;;;;;;;1030470;28;20368;-42
2021/03/18 02:44:32;;;;;;;22.85;14.70;;;;;;;;;;1028440;28;20022;-46
2021/03/18 02:45:03;;;;;;;20.10;13.43;;;;;;;;;;1031129;28;20133;-43
2021/03/18 02:45:35;;;;;;;23.40;14.90;;;;;;;;;;1032514;28;20019;-44
2021/03/18 02:46:06;;;;;;;23.88;14.75;;;;;;;;;;1035410;28;20026;-43
2021/03/18 02:46:37;;;;;;;24.13;15.40;;;;;;;;;;1034583;28;20497;-45
2021/03/18 02:47:08;;;;;;;23.83;15.05;;;;;;;;;;1034058;28;20022;-45
2021/03/18 02:47:38;;;;;;;24.93;15.27;;;;;;;;;;1034554;28;20010;-43
2021/03/18 02:48:10;;;;;;;21.60;15.43;;;;;;;;;;1031780;28;20432;-45
2021/03/18 02:48:40;;;;;;;21.50;14.95;;;;;;;;;;1030269;28;20025;-44
2021/03/18 02:49:11;;;;;;;22.43;15.00;;;;;;;;;;1027981;28;20034;-44
2021/03/18 02:49:42;;;;;;;20.77;14.23;;;;;;;;;;1031289;28;20496;-42
2021/03/18 02:50:12;;;;;;;22.65;14.18;;;;;;;;;;1036632;28;20022;-43
2021/03/18 02:50:42;;;;;;;22.17;14.37;;;;;;;;;;1033981;28;20021;-44
2021/03/18 02:51:17;;;;;;;22.83;15.23;;;;;;;;;;1035545;28;20010;-43
2021/03/18 02:51:47;;;;;;;25.30;14.32;;;;;;;;;;1035370;28;20013;-43
2021/03/18 02:52:19;;;;;;;24.47;14.43;;;;;;;;;;1034208;28;20427;-44
2021/03/18 02:52:49;;;;;;;23.48;15.00;;;;;;;;;;1029069;28;20015;-44
2021/03/18 02:53:20;;;;;;;23.70;15.07;;;;;;;;;;1026577;28;20020;-44
2021/03/18 02:53:50;;;;;;;24.83;15.50;;;;;;;;;;1023667;29;20011;-44
2021/03/18 02:54:21;;;;;;;23.87;15.80;;;;;;;;;;1026833;28;20023;-44
2021/03/18 02:54:52;;;;;;;23.93;14.97;;;;;;;;;;1024312;29;20018;-46
2021/03/18 02:55:23;;;;;;;22.90;15.82;;;;;;;;;;1024486;28;20102;-44
2021/03/18 02:55:53;;;;;;;21.02;14.48;;;;;;;;;;1021862;29;20473;-44
2021/03/18 02:56:23;;;;;;;24.20;15.27;;;;;;;;;;1022199;28;20180;-44
2021/03/18 02:56:55;;;;;;;21.23;14.70;;;;;;;;;;1027184;28;20015;-45
2021/03/18 02:57:26;;;;;;;25.30;15.43;;;;;;;;;;1027535;28;20022;-44
2021/03/18 02:57:57;;;;;;;23.75;15.32;;;;;;;;;;1018276;29;20119;-45
2021/03/18 02:58:28;;;;;;;23.80;15.70;;;;;;;;;;1023533;29;20439;-43
2021/03/18 02:58:58;;;;;;;24.02;15.50;;;;;;;;;;1024462;29;20027;-44
2021/03/18 02:59:32;;;;;;;23.50;15.53;;;;;;;;;;1024711;28;20107;-43
2021/03/18 03:00:04;;;;;;;21.35;14.65;;;;;;;;;;1034921;28;20037;-43
2021/03/18 03:00:34;;;;;;;23.23;15.02;;;;;;;;;;1032428;28;20023;-44
2021/03/18 03:01:05;;;;;;;21.70;14.93;;;;;;;;;;1035537;28;20097;-45
2021/03/18 03:01:35;;;;;;;26.27;15.87;;;;;;;;;;1034041;28;20379;-43
2021/03/18 03:02:06;;;;;;;26.40;16.57;;;;;;;;;;1034170;28;20815;-45
2021/03/18 03:02:36;;;;;;;22.67;14.77;;;;;;;;;;1032351;28;20036;-44
2021/03/18 03:03:07;;;;;;;21.70;15.30;;;;;;;;;;1029827;28;20010;-43
2021/03/18 03:03:37;;;;;;;24.70;15.90;;;;;;;;;;1030420;28;20023;-45
2021/03/18 03:04:07;;;;;;;23.03;15.47;;;;;;;;;;1031318;28;20313;-45
2021/03/18 03:04:38;;;;;;;23.23;14.70;;;;;;;;;;1034329;28;20403;-43